Time;durP1;ratioP1;P1;durP2;ratioP2;P2;SDS_P1;SDS_P2;PMS_P1;PMS_P2;Temp;Humidity;BMP_temperature;BMP_pressure;BME280_temperature;BME280_humidity;BME280_pressure;Samples;Min_cycle;Max_cycle;Signal;HPM_P1;HPM_P2
2022/12/30 00:02:10;;;;;;;3.37;1.80;;;10.60;90.40;;;;;;913634;156;27408;-77
2022/12/30 00:04:37;;;;;;;4.47;1.87;;;10.60;90.40;;;;;;907877;154;27367;-77
2022/12/30 00:07:04;;;;;;;5.53;1.90;;;10.60;90.40;;;;;;922570;151;27371;-77
2022/12/30 00:09:30;;;;;;;4.17;1.87;;;10.60;90.40;;;;;;913196;153;27472;-77
2022/12/30 00:33:06;;;;;;;5.40;1.73;;;10.50;90.60;;;;;;905238;156;27377;-77
2022/12/30 00:33:32;;;;;;;4.93;1.80;;;10.30;89.80;;;;;;913812;156;27330;-78
2022/12/30 00:35:59;;;;;;;5.20;2.03;;;10.20;89.60;;;;;;913843;153;27494;-77
2022/12/30 00:38:25;;;;;;;3.80;1.80;;;10.10;89.60;;;;;;912866;156;27514;-77
2022/12/30 00:43:37;;;;;;;5.30;2.27;;;10.10;89.70;;;;;;912120;156;27653;-78
2022/12/30 00:46:03;;;;;;;8.13;1.90;;;10.00;89.60;;;;;;906209;154;27421;-77
2022/12/30 00:56:44;;;;;;;5.03;1.70;;;9.80;89.50;;;;;;917351;152;27451;-78
2022/12/30 00:59:10;;;;;;;7.90;2.10;;;9.70;89.60;;;;;;917720;152;27471;-77
2022/12/30 01:01:37;;;;;;;3.67;1.63;;;9.70;90.00;;;;;;919049;152;27384;-78
2022/12/30 01:04:04;;;;;;;7.33;2.10;;;9.70;90.10;;;;;;919212;152;27302;-77
2022/12/30 01:06:30;;;;;;;6.57;1.83;;;9.60;90.20;;;;;;905306;153;27429;-78
2022/12/30 01:08:57;;;;;;;5.43;1.70;;;9.60;90.40;;;;;;921146;150;27359;-78
2022/12/30 01:11:23;;;;;;;5.43;2.10;;;9.50;90.30;;;;;;908351;153;27273;-78
2022/12/30 01:13:51;;;;;;;6.47;2.30;;;9.50;90.70;;;;;;917569;152;27311;-77
2022/12/30 01:16:17;;;;;;;4.07;1.67;;;9.40;90.40;;;;;;906420;153;27351;-78
2022/12/30 01:18:43;;;;;;;4.23;1.83;;;9.40;90.40;;;;;;907396;153;27522;-78
2022/12/30 01:21:10;;;;;;;4.97;1.90;;;9.40;90.40;;;;;;916906;151;27942;-77
2022/12/30 01:23:36;;;;;;;6.27;1.90;;;9.30;90.50;;;;;;918019;152;27401;-78
2022/12/30 01:26:03;;;;;;;6.23;2.07;;;9.30;90.70;;;;;;916306;152;27427;-78
2022/12/30 01:28:30;;;;;;;5.70;2.00;;;9.20;90.70;;;;;;919452;151;27891;-77
2022/12/30 01:30:56;;;;;;;6.33;1.83;;;9.20;90.80;;;;;;918263;152;27435;-77
2022/12/30 01:33:23;;;;;;;3.43;1.87;;;9.20;90.90;;;;;;906157;153;27459;-77
2022/12/30 01:35:49;;;;;;;4.17;2.00;;;9.10;91.00;;;;;;922089;150;27421;-78
2022/12/30 01:38:16;;;;;;;2.67;1.83;;;9.10;91.10;;;;;;918713;152;27444;-79
2022/12/30 01:40:42;;;;;;;4.43;1.80;;;9.00;91.10;;;;;;917084;152;27377;-78
2022/12/30 01:43:09;;;;;;;5.73;1.97;;;9.00;91.20;;;;;;916672;151;27312;-77
2022/12/30 01:45:36;;;;;;;5.47;2.00;;;9.00;91.20;;;;;;919520;151;27424;-77
2022/12/30 01:48:05;;;;;;;4.30;1.60;;;8.90;91.20;;;;;;919226;152;27380;-77
2022/12/30 01:50:49;;;;;;;7.50;2.57;;;8.90;91.30;;;;;;917576;151;27435;-78
2022/12/30 01:53:16;;;;;;;4.47;1.83;;;8.80;91.30;;;;;;917206;152;27414;-78
2022/12/30 01:55:52;;;;;;;3.27;1.63;;;8.80;91.40;;;;;;917719;151;27518;-77
2022/12/30 01:58:18;;;;;;;6.10;2.10;;;8.70;91.60;;;;;;917146;152;27413;-78
2022/12/30 02:00:45;;;;;;;4.97;2.17;;;8.70;91.80;;;;;;917221;152;27309;-78
2022/12/30 02:03:12;;;;;;;4.60;2.10;;;8.70;91.90;;;;;;918708;152;27814;-78
2022/12/30 02:05:38;;;;;;;4.87;1.90;;;8.60;92.00;;;;;;907005;153;27375;-77
2022/12/30 02:08:14;;;;;;;7.83;1.93;;;8.60;92.20;;;;;;920547;151;27397;-78
2022/12/30 02:10:40;;;;;;;4.80;1.87;;;8.60;92.30;;;;;;918069;152;27372;-78
2022/12/30 02:13:07;;;;;;;8.53;2.17;;;8.60;92.30;;;;;;917799;152;27503;-77
2022/12/30 02:15:36;;;;;;;2.93;1.50;;;8.60;92.30;;;;;;920211;151;27357;-78
2022/12/30 02:18:15;;;;;;;7.10;1.90;;;8.50;92.30;;;;;;917423;152;27346;-78
2022/12/30 02:21:06;;;;;;;4.70;1.83;;;8.50;92.30;;;;;;917674;152;27352;-78
2022/12/30 02:24:06;;;;;;;4.10;1.87;;;8.40;92.20;;;;;;918602;152;27327;-78
2022/12/30 02:26:41;;;;;;;7.20;1.73;;;8.40;92.20;;;;;;917416;152;27320;-77
2022/12/30 02:29:42;;;;;;;3.10;1.27;;;8.30;92.20;;;;;;917339;152;27383;-78
2022/12/30 02:32:11;;;;;;;4.97;1.87;;;8.20;92.30;;;;;;919699;152;27387;-79
2022/12/30 02:34:56;;;;;;;3.63;1.57;;;8.10;92.20;;;;;;920093;152;27414;-80
2022/12/30 02:37:34;;;;;;;6.67;2.23;;;8.00;92.30;;;;;;918532;152;27460;-78
2022/12/30 02:40:04;;;;;;;4.57;1.70;;;7.90;92.30;;;;;;917481;152;27434;-78
2022/12/30 02:45:33;;;;;;;5.93;2.27;;;7.80;92.60;;;;;;921157;151;27327;-79
2022/12/30 02:48:02;;;;;;;5.70;1.83;;;7.70;92.70;;;;;;920349;152;27405;-79
2022/12/30 02:53:13;;;;;;;6.43;1.67;;;7.60;93.00;;;;;;918003;152;27380;-78
2022/12/30 02:55:40;;;;;;;4.23;1.90;;;7.50;93.20;;;;;;917520;151;27471;-79
2022/12/30 02:58:06;;;;;;;5.60;1.87;;;7.40;93.40;;;;;;919309;154;27485;-78
2022/12/30 03:06:23;;;;;;;3.07;1.70;;;7.30;93.50;;;;;;918206;152;27313;-79
2022/12/30 03:09:11;;;;;;;3.90;1.70;;;7.30;93.60;;;;;;921416;155;27427;-79
2022/12/30 03:11:58;;;;;;;4.50;1.63;;;7.20;93.80;;;;;;920310;152;27508;-79
2022/12/30 03:14:25;;;;;;;3.77;2.00;;;7.10;94.20;;;;;;917422;152;27297;-79
2022/12/30 03:16:54;;;;;;;3.97;1.93;;;7.10;94.20;;;;;;916724;155;27306;-79
2022/12/30 03:19:21;;;;;;;4.77;1.83;;;7.00;94.30;;;;;;918263;155;27409;-78
2022/12/30 03:21:47;;;;;;;2.70;1.70;;;6.90;94.50;;;;;;918606;155;27486;-78
2022/12/30 03:27:04;;;;;;;6.40;2.13;;;6.90;95.10;;;;;;919166;155;27412;-78
2022/12/30 03:29:37;;;;;;;6.53;1.40;;;6.80;94.90;;;;;;920403;155;27426;-78
2022/12/30 03:32:03;;;;;;;5.73;2.27;;;6.80;95.10;;;;;;920567;155;27409;-78
2022/12/30 03:34:30;;;;;;;3.50;1.80;;;6.70;95.30;;;;;;918658;152;28591;-78
2022/12/30 03:36:59;;;;;;;6.37;1.80;;;6.70;95.50;;;;;;920407;153;27368;-76
2022/12/30 03:39:26;;;;;;;3.10;1.57;;;6.70;95.60;;;;;;918208;152;27455;-76
2022/12/30 03:41:52;;;;;;;2.97;1.57;;;6.70;95.60;;;;;;917858;155;27325;-78
2022/12/30 03:44:19;;;;;;;5.63;1.70;;;6.60;95.60;;;;;;920089;155;27502;-76
2022/12/30 03:46:46;;;;;;;5.30;1.93;;;6.60;95.60;;;;;;919600;155;27486;-76
2022/12/30 03:49:12;;;;;;;7.13;2.33;;;6.50;95.70;;;;;;918495;153;27858;-76
2022/12/30 03:51:39;;;;;;;4.60;2.20;;;6.50;95.80;;;;;;919014;155;27450;-77
2022/12/30 03:54:05;;;;;;;3.50;2.03;;;6.50;95.90;;;;;;924900;151;27860;-76
2022/12/30 03:56:32;;;;;;;5.33;1.93;;;6.40;96.00;;;;;;925182;151;27383;-78
2022/12/30 03:58:58;;;;;;;2.17;1.80;;;6.40;96.20;;;;;;926107;151;27386;-76
2022/12/30 04:01:25;;;;;;;5.20;1.90;;;6.40;96.30;;;;;;906004;154;27411;-76
2022/12/30 04:03:52;;;;;;;5.73;2.10;;;6.30;96.50;;;;;;923791;152;27332;-76
2022/12/30 04:06:18;;;;;;;3.67;2.00;;;6.30;96.70;;;;;;907573;153;27348;-76
2022/12/30 04:08:45;;;;;;;4.27;1.97;;;6.30;97.00;;;;;;922000;150;27416;-76
2022/12/30 04:11:11;;;;;;;5.13;2.23;;;6.30;97.30;;;;;;918572;152;27407;-75
2022/12/30 04:13:38;;;;;;;5.90;1.87;;;6.30;97.50;;;;;;922418;150;27355;-76
2022/12/30 04:16:05;;;;;;;8.10;2.13;;;6.30;97.80;;;;;;918618;151;27300;-75
2022/12/30 04:18:31;;;;;;;4.50;2.17;;;6.30;98.00;;;;;;916399;152;27318;-75
2022/12/30 04:20:58;;;;;;;5.83;2.07;;;6.30;98.20;;;;;;918440;152;27346;-76
2022/12/30 04:23:24;;;;;;;4.23;2.00;;;6.30;98.30;;;;;;918196;152;27952;-78
2022/12/30 04:25:51;;;;;;;3.67;2.30;;;6.30;98.30;;;;;;919064;152;27401;-75
2022/12/30 04:28:17;;;;;;;4.23;1.50;;;6.40;98.60;;;;;;919631;152;27323;-78
2022/12/30 04:30:44;;;;;;;2.93;1.60;;;6.40;98.60;;;;;;919793;152;27309;-75
2022/12/30 04:33:11;;;;;;;4.77;2.00;;;6.40;98.60;;;;;;918704;152;27352;-76
2022/12/30 04:35:37;;;;;;;3.67;2.17;;;6.40;98.60;;;;;;920405;152;27817;-78
2022/12/30 04:38:04;;;;;;;6.07;2.17;;;6.40;98.60;;;;;;921813;150;27362;-76
2022/12/30 04:40:30;;;;;;;4.80;2.20;;;6.40;98.60;;;;;;920536;151;27897;-75
2022/12/30 04:42:57;;;;;;;4.63;2.10;;;6.40;98.70;;;;;;916837;152;27346;-76
2022/12/30 04:45:24;;;;;;;4.70;1.90;;;6.40;98.70;;;;;;920148;151;27377;-76
2022/12/30 04:47:50;;;;;;;4.43;2.30;;;6.40;98.70;;;;;;917992;151;27501;-75
2022/12/30 04:50:17;;;;;;;6.33;2.03;;;6.40;98.70;;;;;;917330;152;27462;-75
2022/12/30 04:52:43;;;;;;;4.70;2.30;;;6.40;98.70;;;;;;919962;152;28021;-75
2022/12/30 04:55:10;;;;;;;4.97;2.30;;;6.40;98.70;;;;;;918159;151;27307;-75
2022/12/30 04:57:36;;;;;;;6.17;2.50;;;6.40;98.70;;;;;;915778;154;27491;-76
2022/12/30 05:00:03;;;;;;;4.40;2.07;;;6.40;98.60;;;;;;913619;154;27451;-75
2022/12/30 05:02:30;;;;;;;4.67;1.97;;;6.40;98.70;;;;;;913899;153;27389;-79
2022/12/30 05:04:56;;;;;;;3.97;1.90;;;6.30;98.60;;;;;;909482;154;27394;-75
2022/12/30 05:07:23;;;;;;;4.70;2.17;;;6.30;98.90;;;;;;920908;151;27327;-75
2022/12/30 05:09:49;;;;;;;4.17;1.90;;;6.30;98.90;;;;;;913768;154;27477;-75
2022/12/30 05:12:16;;;;;;;4.77;2.10;;;6.30;98.90;;;;;;912705;156;27450;-76
2022/12/30 05:14:43;;;;;;;5.60;2.07;;;6.30;99.10;;;;;;908936;154;27422;-79
2022/12/30 05:17:09;;;;;;;2.50;1.80;;;6.30;99.10;;;;;;921812;151;27358;-76
2022/12/30 05:19:36;;;;;;;6.63;2.17;;;6.30;99.10;;;;;;923715;154;27395;-75
2022/12/30 05:22:02;;;;;;;3.83;1.80;;;6.30;99.30;;;;;;924709;151;27807;-75
2022/12/30 05:27:13;;;;;;;5.77;2.03;;;6.40;99.40;;;;;;918244;152;27362;-78
2022/12/30 05:29:40;;;;;;;4.87;2.00;;;6.40;99.40;;;;;;908432;156;27375;-75
2022/12/30 05:32:07;;;;;;;5.43;2.20;;;6.40;99.60;;;;;;911021;154;27396;-75
2022/12/30 05:34:33;;;;;;;6.33;2.27;;;6.40;99.90;;;;;;912805;154;27294;-75
2022/12/30 05:37:00;;;;;;;5.83;2.10;;;6.40;99.90;;;;;;914428;154;27541;-76
2022/12/30 05:39:26;;;;;;;4.73;1.93;;;6.50;99.90;;;;;;912944;153;27369;-76
2022/12/30 05:41:53;;;;;;;7.63;2.43;;;6.50;99.90;;;;;;905176;154;27358;-76
2022/12/30 05:44:19;;;;;;;3.90;2.10;;;6.60;99.90;;;;;;923533;151;27473;-77
2022/12/30 05:46:46;;;;;;;7.20;2.30;;;6.70;99.90;;;;;;913423;154;27407;-76
2022/12/30 05:49:13;;;;;;;4.40;1.60;;;6.80;99.90;;;;;;913945;153;27351;-76
2022/12/30 05:51:39;;;;;;;4.77;2.30;;;6.90;99.90;;;;;;914787;154;27302;-76
2022/12/30 05:54:06;;;;;;;3.43;1.90;;;7.00;99.90;;;;;;916789;153;27322;-78
2022/12/30 05:56:32;;;;;;;5.83;2.87;;;7.10;99.90;;;;;;913373;153;27473;-75
2022/12/30 05:58:59;;;;;;;3.63;1.70;;;7.20;99.90;;;;;;913085;154;27373;-76
2022/12/30 06:01:26;;;;;;;4.53;1.70;;;7.30;99.90;;;;;;913194;154;27392;-75
2022/12/30 06:03:55;;;;;;;6.90;1.90;;;7.40;99.90;;;;;;914517;153;27333;-76
2022/12/30 06:06:21;;;;;;;4.57;2.23;;;7.50;99.90;;;;;;914094;153;27385;-75
2022/12/30 06:08:48;;;;;;;6.23;2.20;;;7.50;99.90;;;;;;915015;154;27429;-76
2022/12/30 06:11:15;;;;;;;5.87;2.07;;;7.60;99.90;;;;;;914461;156;27438;-75
2022/12/30 06:13:41;;;;;;;6.00;2.13;;;7.70;99.90;;;;;;913700;153;27340;-75
2022/12/30 06:16:08;;;;;;;7.27;2.30;;;7.70;99.90;;;;;;914059;154;27289;-76
2022/12/30 06:18:34;;;;;;;4.97;1.90;;;7.80;99.90;;;;;;912981;153;27965;-76
2022/12/30 06:21:01;;;;;;;6.03;1.90;;;7.90;99.90;;;;;;912943;156;27417;-75
2022/12/30 06:23:28;;;;;;;7.50;2.77;;;7.90;99.90;;;;;;911034;153;27403;-75
2022/12/30 06:25:54;;;;;;;6.20;2.43;;;8.00;99.90;;;;;;914155;154;27343;-76
2022/12/30 06:28:21;;;;;;;3.40;1.70;;;8.00;99.90;;;;;;921285;153;27328;-76
2022/12/30 06:30:48;;;;;;;4.73;1.93;;;8.10;99.90;;;;;;906285;157;27341;-78
2022/12/30 06:33:14;;;;;;;4.53;2.30;;;8.10;99.90;;;;;;926614;151;27452;-76
2022/12/30 06:35:40;;;;;;;3.50;1.80;;;8.20;99.90;;;;;;913019;154;27364;-76
2022/12/30 06:38:07;;;;;;;4.87;2.43;;;8.30;99.90;;;;;;911442;154;27465;-77
2022/12/30 06:40:34;;;;;;;7.57;2.30;;;8.30;99.90;;;;;;912942;156;27404;-76
2022/12/30 06:43:00;;;;;;;6.47;2.53;;;8.30;99.90;;;;;;914035;156;27334;-76
2022/12/30 06:45:27;;;;;;;6.10;1.93;;;8.30;99.90;;;;;;913356;153;27368;-79
2022/12/30 06:47:53;;;;;;;2.57;2.07;;;8.30;99.50;;;;;;915593;156;27385;-75
2022/12/30 06:50:20;;;;;;;7.53;2.20;;;8.30;99.10;;;;;;912537;154;27324;-75
2022/12/30 06:52:47;;;;;;;8.20;2.63;;;8.30;98.70;;;;;;913879;156;27278;-75
2022/12/30 06:55:13;;;;;;;4.30;1.77;;;8.20;98.40;;;;;;913906;154;27325;-77
2022/12/30 06:57:40;;;;;;;4.87;2.00;;;8.10;98.40;;;;;;912886;156;27507;-75
2022/12/30 07:00:06;;;;;;;6.50;2.60;;;8.10;98.70;;;;;;918243;152;27460;-76
2022/12/30 07:02:33;;;;;;;4.93;2.30;;;8.00;99.40;;;;;;918585;152;27419;-76
2022/12/30 07:05:00;;;;;;;3.90;2.30;;;8.00;99.30;;;;;;918441;151;27418;-75
2022/12/30 07:07:26;;;;;;;5.50;2.57;;;8.00;99.50;;;;;;918659;152;27839;-76
2022/12/30 07:09:53;;;;;;;5.03;2.20;;;8.00;99.70;;;;;;918368;152;27389;-77
2022/12/30 07:12:19;;;;;;;3.63;2.13;;;8.00;99.70;;;;;;917576;152;27388;-75
2022/12/30 07:14:46;;;;;;;3.97;2.20;;;8.10;99.90;;;;;;918623;151;27387;-76
2022/12/30 07:17:13;;;;;;;5.90;2.20;;;8.10;99.90;;;;;;919061;152;27499;-76
2022/12/30 07:19:39;;;;;;;5.23;2.40;;;8.10;99.90;;;;;;917582;151;28688;-77
2022/12/30 07:22:06;;;;;;;3.43;2.20;;;8.20;99.90;;;;;;919303;152;27335;-75
2022/12/30 07:24:32;;;;;;;4.63;2.17;;;8.20;99.90;;;;;;918699;152;27413;-75
2022/12/30 07:26:59;;;;;;;5.33;2.03;;;8.20;99.90;;;;;;918566;152;27421;-75
2022/12/30 07:29:25;;;;;;;5.80;2.07;;;8.30;99.90;;;;;;919826;152;27328;-75
2022/12/30 07:31:52;;;;;;;6.33;2.17;;;8.30;99.90;;;;;;918210;151;27306;-75
2022/12/30 07:34:19;;;;;;;6.43;2.23;;;8.40;99.90;;;;;;920274;152;27427;-76
2022/12/30 07:36:45;;;;;;;4.37;2.47;;;8.40;99.90;;;;;;918918;152;27471;-78
2022/12/30 07:39:12;;;;;;;5.10;2.00;;;8.50;99.90;;;;;;918016;152;27509;-76
2022/12/30 07:41:38;;;;;;;5.93;2.73;;;8.50;99.90;;;;;;917703;151;28125;-76
2022/12/30 07:44:05;;;;;;;5.77;2.40;;;8.60;99.90;;;;;;918394;151;27410;-76
2022/12/30 07:46:32;;;;;;;4.60;2.20;;;8.60;99.90;;;;;;921098;150;27279;-76
2022/12/30 07:48:58;;;;;;;5.13;2.23;;;8.70;99.90;;;;;;922876;150;27404;-78
2022/12/30 07:51:25;;;;;;;2.80;1.90;;;8.70;99.90;;;;;;918816;151;27412;-75
2022/12/30 07:53:51;;;;;;;6.40;2.33;;;8.70;99.90;;;;;;920069;152;28678;-75
2022/12/30 07:56:18;;;;;;;3.43;2.40;;;8.90;99.90;;;;;;919174;151;27407;-75
2022/12/30 07:58:44;;;;;;;4.30;2.33;;;8.90;99.90;;;;;;919394;152;27471;-76
2022/12/30 08:01:11;;;;;;;5.40;2.43;;;9.00;99.90;;;;;;914144;156;27301;-78
2022/12/30 08:03:38;;;;;;;8.73;3.77;;;9.10;99.90;;;;;;913819;156;27402;-75
2022/12/30 08:06:07;;;;;;;4.90;2.83;;;9.20;99.90;;;;;;914575;156;27399;-75
2022/12/30 08:08:34;;;;;;;6.63;2.20;;;9.40;99.90;;;;;;911191;154;27810;-76
2022/12/30 08:11:00;;;;;;;11.00;3.00;;;9.60;99.90;;;;;;914570;156;27518;-75
2022/12/30 08:13:27;;;;;;;6.20;2.37;;;9.90;99.90;;;;;;912394;156;27674;-79
2022/12/30 08:15:53;;;;;;;5.33;2.13;;;10.10;99.90;;;;;;914567;154;27474;-75
2022/12/30 08:18:20;;;;;;;3.70;2.07;;;10.40;99.90;;;;;;912868;156;27480;-75
2022/12/30 08:20:46;;;;;;;6.17;2.97;;;10.60;99.90;;;;;;914926;156;27314;-74
2022/12/30 08:23:13;;;;;;;2.97;1.70;;;10.70;99.90;;;;;;912994;156;27360;-75
2022/12/30 08:25:40;;;;;;;3.70;1.90;;;10.80;99.20;;;;;;913081;153;27326;-76
2022/12/30 08:28:06;;;;;;;3.23;2.27;;;11.00;98.60;;;;;;915247;153;27457;-78
2022/12/30 08:30:33;;;;;;;4.90;1.93;;;11.00;98.00;;;;;;913759;155;27380;-74
2022/12/30 08:32:59;;;;;;;6.03;2.47;;;11.10;97.60;;;;;;913588;156;28724;-76
2022/12/30 08:35:26;;;;;;;6.10;2.30;;;11.10;97.30;;;;;;913094;153;27310;-74
2022/12/30 08:37:53;;;;;;;3.83;1.70;;;11.10;97.10;;;;;;915096;156;27419;-75
2022/12/30 08:40:19;;;;;;;7.40;2.37;;;11.20;96.90;;;;;;913851;156;27347;-78
2022/12/30 08:42:46;;;;;;;4.97;1.80;;;11.10;96.70;;;;;;908579;154;27402;-75
2022/12/30 08:45:12;;;;;;;5.53;2.63;;;11.20;96.60;;;;;;913540;154;27381;-75
2022/12/30 08:47:39;;;;;;;4.90;1.90;;;11.20;96.40;;;;;;913178;156;27342;-76
2022/12/30 08:50:06;;;;;;;5.43;1.73;;;11.10;96.40;;;;;;907499;156;27465;-75
2022/12/30 08:52:32;;;;;;;6.23;2.20;;;11.20;96.40;;;;;;914445;153;27318;-75
2022/12/30 08:54:59;;;;;;;6.27;2.00;;;11.20;96.50;;;;;;913917;153;27419;-79
2022/12/30 08:57:25;;;;;;;4.93;1.80;;;11.20;96.60;;;;;;915318;153;27384;-75
2022/12/30 08:59:52;;;;;;;4.33;1.90;;;11.20;96.70;;;;;;912169;156;27338;-76
2022/12/30 09:02:18;;;;;;;8.47;2.00;;;11.30;96.90;;;;;;912466;154;27286;-76
2022/12/30 09:04:45;;;;;;;5.67;2.10;;;11.30;97.00;;;;;;912216;154;27440;-76
2022/12/30 09:07:12;;;;;;;5.57;2.00;;;11.40;97.10;;;;;;913783;154;27422;-77
2022/12/30 09:09:38;;;;;;;3.00;1.87;;;11.40;96.80;;;;;;913101;154;27424;-75
2022/12/30 09:12:05;;;;;;;4.97;1.97;;;11.50;96.50;;;;;;912466;156;27397;-76
2022/12/30 09:14:31;;;;;;;4.87;1.90;;;11.60;96.10;;;;;;915114;153;27456;-75
2022/12/30 09:16:58;;;;;;;4.83;1.70;;;11.60;95.60;;;;;;914033;153;27392;-75
2022/12/30 09:19:25;;;;;;;4.07;1.63;;;11.60;95.40;;;;;;913197;153;27427;-76
2022/12/30 09:21:51;;;;;;;6.33;1.73;;;11.60;95.20;;;;;;913731;154;27826;-77
2022/12/30 09:24:18;;;;;;;3.50;1.90;;;11.60;95.30;;;;;;915152;156;27373;-75
2022/12/30 09:26:44;;;;;;;2.93;1.63;;;11.60;95.30;;;;;;914321;154;27311;-75
2022/12/30 09:29:17;;;;;;;3.67;1.60;;;11.60;95.30;;;;;;913719;156;27579;-75
2022/12/30 09:31:38;;;;;;;2.60;1.90;;;11.60;95.40;;;;;;905680;154;27468;-76
2022/12/30 09:34:05;;;;;;;3.70;1.40;;;11.60;95.40;;;;;;914518;154;27394;-78
2022/12/30 09:36:31;;;;;;;2.67;1.40;;;11.70;95.40;;;;;;913035;154;27365;-75
2022/12/30 09:38:57;;;;;;;4.37;1.70;;;11.70;95.30;;;;;;915321;153;27346;-75
2022/12/30 09:44:39;;;;;;;3.50;1.47;;;11.80;95.10;;;;;;912507;153;27871;-75
2022/12/30 09:47:11;;;;;;;3.60;1.90;;;11.80;95.00;;;;;;919403;152;27280;-77
2022/12/30 09:49:40;;;;;;;3.77;1.80;;;11.90;94.80;;;;;;919585;155;27464;-74
2022/12/30 09:52:10;;;;;;;4.07;1.60;;;11.90;94.60;;;;;;906327;156;27369;-75
2022/12/30 09:54:36;;;;;;;3.47;2.07;;;11.90;94.60;;;;;;922643;151;27397;-76
2022/12/30 09:57:30;;;;;;;6.60;2.30;;;11.90;94.50;;;;;;913439;153;27322;-76
2022/12/30 09:59:29;;;;;;;4.40;1.80;;;12.00;94.60;;;;;;919220;154;27411;-75
2022/12/30 10:02:05;;;;;;;4.83;1.80;;;12.00;94.60;;;;;;912102;153;27557;-75
2022/12/30 10:04:37;;;;;;;4.27;1.70;;;12.00;94.40;;;;;;908631;153;27282;-76
2022/12/30 10:07:19;;;;;;;3.03;1.77;;;12.10;94.30;;;;;;914465;153;27337;-76
2022/12/30 10:09:54;;;;;;;4.60;1.80;;;12.10;94.20;;;;;;914220;153;27535;-77
2022/12/30 10:12:48;;;;;;;4.07;1.70;;;12.20;94.10;;;;;;913674;154;27392;-77
2022/12/30 10:15:24;;;;;;;5.23;1.80;;;12.20;94.00;;;;;;914501;156;27483;-76
2022/12/30 10:17:56;;;;;;;6.10;1.90;;;12.20;93.90;;;;;;914170;154;27377;-76
2022/12/30 10:20:54;;;;;;;3.67;2.07;;;12.20;93.90;;;;;;913679;156;27366;-77
2022/12/30 10:23:41;;;;;;;2.37;1.50;;;12.30;93.90;;;;;;921676;153;27402;-76
2022/12/30 10:26:11;;;;;;;2.30;1.60;;;12.30;93.80;;;;;;912707;154;27334;-77
2022/12/30 10:28:37;;;;;;;5.17;1.70;;;12.30;93.70;;;;;;913471;156;27381;-80
2022/12/30 10:31:07;;;;;;;1.40;1.30;;;12.40;93.70;;;;;;913516;156;27462;-76
2022/12/30 10:33:31;;;;;;;3.17;1.20;;;12.40;93.70;;;;;;910750;156;27430;-76
2022/12/30 10:35:57;;;;;;;1.60;1.20;;;12.40;93.60;;;;;;913411;154;27399;-76
2022/12/30 10:38:24;;;;;;;3.17;1.43;;;12.50;93.50;;;;;;913199;156;27437;-77
2022/12/30 10:40:53;;;;;;;2.43;1.30;;;12.60;93.60;;;;;;912232;154;27344;-78
2022/12/30 10:43:32;;;;;;;1.80;1.23;;;12.60;93.60;;;;;;911570;154;27474;-76
2022/12/30 10:46:19;;;;;;;1.57;1.30;;;12.70;93.70;;;;;;876759;156;27415;-76
2022/12/30 10:48:55;;;;;;;2.33;1.23;;;12.80;93.60;;;;;;920980;153;27366;-76
2022/12/30 10:51:24;;;;;;;2.33;1.40;;;12.90;93.60;;;;;;922535;153;27297;-76
2022/12/30 10:53:48;;;;;;;3.27;1.20;;;12.90;93.40;;;;;;908884;154;27355;-77
2022/12/30 10:56:15;;;;;;;3.87;1.37;;;13.00;93.30;;;;;;921535;154;27453;-77
2022/12/30 10:58:41;;;;;;;2.97;1.30;;;13.10;93.20;;;;;;912845;154;27384;-76
2022/12/30 11:01:08;;;;;;;1.27;1.00;;;13.20;93.20;;;;;;912785;154;27691;-76
2022/12/30 11:03:50;;;;;;;1.83;1.20;;;13.30;93.10;;;;;;913589;154;27362;-76
2022/12/30 11:06:22;;;;;;;2.27;1.10;;;13.30;93.00;;;;;;914170;153;27325;-79
2022/12/30 11:08:49;;;;;;;1.23;0.70;;;13.40;92.60;;;;;;922115;154;27408;-76
2022/12/30 11:11:15;;;;;;;1.93;1.20;;;13.50;92.20;;;;;;911205;156;27848;-76
2022/12/30 11:16:30;;;;;;;1.02;0.88;;;13.60;91.50;;;;;;913917;153;27493;-77
2022/12/30 11:18:56;;;;;;;1.35;1.00;;;13.70;91.20;;;;;;913972;153;27349;-77
2022/12/30 11:21:29;;;;;;;1.23;1.10;;;13.70;90.90;;;;;;915260;156;27373;-80
2022/12/30 11:23:56;;;;;;;3.30;0.75;;;13.70;90.80;;;;;;912079;156;27405;-77
2022/12/30 11:26:22;;;;;;;2.40;0.90;;;13.70;90.60;;;;;;913144;156;27407;-76
2022/12/30 11:28:49;;;;;;;1.90;1.27;;;13.80;90.40;;;;;;913953;156;27317;-76
2022/12/30 11:31:15;;;;;;;1.40;1.10;;;13.80;90.10;;;;;;911269;153;27356;-77
2022/12/30 11:33:53;;;;;;;1.00;0.90;;;13.80;89.80;;;;;;912778;156;27345;-77
2022/12/30 11:36:31;;;;;;;2.62;0.90;;;13.70;89.60;;;;;;912826;156;27473;-76
2022/12/30 11:38:58;;;;;;;2.72;1.07;;;13.70;89.40;;;;;;913548;156;27537;-76
2022/12/30 11:41:27;;;;;;;2.42;1.10;;;13.70;89.40;;;;;;912216;153;27358;-78
2022/12/30 11:43:59;;;;;;;2.02;0.90;;;13.70;89.20;;;;;;910459;156;27529;-79
2022/12/30 11:46:26;;;;;;;0.90;0.82;;;13.70;88.90;;;;;;912442;154;27494;-76
2022/12/30 11:48:53;;;;;;;2.05;1.02;;;13.70;89.00;;;;;;912255;153;27381;-75
2022/12/30 11:51:22;;;;;;;1.90;0.90;;;13.60;89.00;;;;;;913417;154;27443;-76
2022/12/30 11:53:48;;;;;;;1.82;1.22;;;13.60;88.60;;;;;;912387;153;27448;-79
2022/12/30 11:56:21;;;;;;;1.37;1.27;;;13.60;88.50;;;;;;913707;153;27518;-76
2022/12/30 11:58:47;;;;;;;1.20;1.10;;;13.60;88.30;;;;;;913997;153;27343;-76
2022/12/30 12:01:14;;;;;;;1.67;1.07;;;13.60;88.30;;;;;;912841;156;27382;-79
2022/12/30 12:03:49;;;;;;;3.12;1.05;;;13.60;88.20;;;;;;912757;153;27532;-77
2022/12/30 12:06:16;;;;;;;2.65;1.20;;;13.60;88.20;;;;;;911235;156;27398;-77
2022/12/30 12:08:42;;;;;;;1.25;0.98;;;13.60;88.20;;;;;;912358;154;27471;-77
2022/12/30 12:11:12;;;;;;;1.70;1.10;;;13.60;88.30;;;;;;912452;156;27297;-76
2022/12/30 12:13:44;;;;;;;2.37;1.10;;;13.60;88.30;;;;;;912802;154;27419;-76
2022/12/30 12:16:16;;;;;;;0.88;0.82;;;13.60;88.40;;;;;;909582;153;27507;-77
2022/12/30 12:18:43;;;;;;;1.35;1.07;;;13.60;88.30;;;;;;913716;153;27345;-76
2022/12/30 12:21:18;;;;;;;3.05;1.00;;;13.60;88.00;;;;;;913418;154;27318;-77
2022/12/30 12:23:51;;;;;;;1.30;1.12;;;13.70;87.90;;;;;;912853;154;27423;-77
2022/12/30 12:26:20;;;;;;;0.80;0.80;;;13.60;87.60;;;;;;912854;156;27396;-78
2022/12/30 12:28:47;;;;;;;2.15;1.10;;;13.60;87.30;;;;;;913008;156;27465;-76
2022/12/30 12:31:13;;;;;;;1.83;1.10;;;13.60;87.20;;;;;;912408;156;27377;-76
2022/12/30 12:33:42;;;;;;;1.80;0.82;;;13.60;87.10;;;;;;912969;156;27350;-76
2022/12/30 12:36:30;;;;;;;1.30;1.20;;;13.60;86.70;;;;;;888306;156;27530;-79
2022/12/30 12:39:03;;;;;;;1.43;0.87;;;13.50;86.50;;;;;;914556;154;27384;-80
2022/12/30 12:41:37;;;;;;;0.95;0.88;;;13.50;86.40;;;;;;921465;151;27403;-78
2022/12/30 12:44:19;;;;;;;0.98;0.90;;;13.50;86.10;;;;;;913935;153;27346;-77
2022/12/30 12:47:04;;;;;;;1.87;1.00;;;13.40;85.70;;;;;;912219;156;27396;-77
2022/12/30 12:49:49;;;;;;;1.20;0.80;;;13.40;85.70;;;;;;924140;151;27376;-76
2022/12/30 12:52:31;;;;;;;1.20;0.80;;;13.30;85.50;;;;;;913389;154;27914;-79
2022/12/30 12:55:03;;;;;;;1.13;1.03;;;13.30;85.60;;;;;;907011;154;27914;-76
2022/12/30 12:57:33;;;;;;;1.47;1.20;;;13.20;86.10;;;;;;913230;154;27327;-76
2022/12/30 13:00:09;;;;;;;1.17;1.02;;;13.20;85.50;;;;;;913681;153;27472;-76
2022/12/30 13:02:56;;;;;;;0.85;0.85;;;13.10;85.40;;;;;;913539;152;27364;-76
2022/12/30 13:05:28;;;;;;;1.87;1.20;;;13.10;85.60;;;;;;919612;152;27328;-79
2022/12/30 13:08:07;;;;;;;1.10;1.00;;;13.00;85.60;;;;;;920596;152;27472;-76
2022/12/30 13:11:11;;;;;;;1.00;0.87;;;13.00;85.90;;;;;;916348;152;27462;-77
2022/12/30 13:13:41;;;;;;;0.77;0.77;;;12.90;85.90;;;;;;918554;152;27498;-75
2022/12/30 13:16:16;;;;;;;0.97;0.87;;;12.90;86.00;;;;;;917066;152;27432;-75
2022/12/30 13:18:43;;;;;;;1.10;1.00;;;12.90;86.10;;;;;;916198;152;27370;-76
2022/12/30 13:21:09;;;;;;;1.00;0.93;;;12.80;86.20;;;;;;919192;152;27366;-76
2022/12/30 13:23:36;;;;;;;1.87;1.20;;;12.80;86.20;;;;;;905381;154;27556;-76
2022/12/30 13:26:02;;;;;;;0.83;0.83;;;12.80;86.30;;;;;;918253;152;27487;-75
2022/12/30 13:28:29;;;;;;;1.47;0.90;;;12.80;86.40;;;;;;921465;152;27397;-75
2022/12/30 13:31:20;;;;;;;1.63;0.90;;;12.80;86.40;;;;;;921341;151;27410;-76
2022/12/30 13:34:05;;;;;;;1.57;1.00;;;12.80;86.40;;;;;;920709;150;27353;-79
2022/12/30 13:36:49;;;;;;;2.67;1.27;;;12.80;86.40;;;;;;921381;152;27303;-76
2022/12/30 13:39:40;;;;;;;2.00;1.67;;;12.80;86.30;;;;;;921596;151;27416;-77
2022/12/30 13:42:12;;;;;;;3.60;1.57;;;12.80;86.40;;;;;;919872;150;27376;-76
2022/12/30 13:44:39;;;;;;;1.27;1.13;;;12.70;86.30;;;;;;922895;151;27324;-76
2022/12/30 13:47:06;;;;;;;1.27;1.10;;;12.70;86.40;;;;;;923087;152;27280;-75
2022/12/30 13:49:35;;;;;;;1.30;1.20;;;12.70;86.40;;;;;;920242;152;27349;-75
2022/12/30 13:52:04;;;;;;;1.17;1.17;;;12.70;86.50;;;;;;919867;152;27481;-75
2022/12/30 13:54:31;;;;;;;1.67;1.20;;;12.70;86.40;;;;;;905551;153;27375;-78
2022/12/30 13:56:59;;;;;;;1.10;1.07;;;12.70;86.40;;;;;;922102;150;27317;-79